Decoded Metar for VDPP (PHNOM-PENH in CAMBODIA) (IATA:PNH) | Meteo·Mobile Aviation Weather
aviador You're here:

VDPP Decoded Metar

PHNOM-PENH in CAMBODIA
Report Time2019-10-22 14:00:00
UTC Time2019-10-22 14:38:31
Flight Rules vfr VFR
Wind300° at 03 kt
W.Decomp.*RWY 23: 1.0 kt HW 2.8 kt RCW
Visibility9000 m
Phenomena:N/A
Clouds:Few 017 Hf
Few CB 020 Hf
Expected CloudBase > 3,200 ft AGL from Temp-Dew spread
CeilingNone
Temp31°C (ISA +16)
Dew Point23°C (62% RH)
Heat Index35.4°C
QNH1008 hPa
Density Alt2,408 ft
Elevation33 ft
Report Wrong Elevation
Raw Report
VDPP 221400Z 30003KT 9000 FEW017 FEW020CB 31/23 Q1008 CB:W=

Extra information for VDPP:More info

Metar Taf Metar & Taf Last 4 Metars F.Rules Stats Wind Profile Meteogram Temp Stats Airport Information Weather charts Add Link Nearby VenuesMetar ALERT Operation Metar Decoded Social comments